createdAt,value
2018-09-17T00:00:05.615Z,38.50
2018-09-17T00:02:33.992Z,38.60
2018-09-17T00:05:02.352Z,38.60
2018-09-17T00:07:30.681Z,38.60
2018-09-17T00:09:58.992Z,38.50
2018-09-17T00:12:27.366Z,38.50
2018-09-17T00:14:55.659Z,38.60
2018-09-17T00:17:23.991Z,38.60
2018-09-17T00:19:52.378Z,38.70
2018-09-17T00:22:20.692Z,38.70
2018-09-17T00:24:48.985Z,38.50
2018-09-17T00:27:17.327Z,38.20
2018-09-17T00:29:45.699Z,38.00
2018-09-17T00:32:14.084Z,38.10
2018-09-17T00:34:42.479Z,38.00
2018-09-17T00:37:10.895Z,37.80
2018-09-17T00:39:39.277Z,37.90
2018-09-17T00:42:07.867Z,37.60
2018-09-17T00:44:36.228Z,37.50
2018-09-17T00:47:04.611Z,37.60
2018-09-17T00:49:32.922Z,37.70
2018-09-17T00:52:01.331Z,37.90
2018-09-17T00:54:29.688Z,37.90
2018-09-17T00:56:57.991Z,38.20
2018-09-17T00:59:26.380Z,38.30
2018-09-17T01:01:54.723Z,38.60
2018-09-17T01:04:23.118Z,38.60
2018-09-17T01:06:51.840Z,38.70
2018-09-17T01:09:25.520Z,38.80
2018-09-17T01:11:53.838Z,38.90
2018-09-17T01:14:22.118Z,39.00
2018-09-17T01:16:50.455Z,39.00
2018-09-17T01:19:18.790Z,39.20
2018-09-17T01:21:47.062Z,39.20
2018-09-17T01:24:15.375Z,39.40
2018-09-17T01:26:43.923Z,39.50
2018-09-17T01:29:12.224Z,39.70
2018-09-17T01:31:40.554Z,39.80
2018-09-17T01:34:08.815Z,39.80
2018-09-17T01:36:37.134Z,39.90
2018-09-17T01:39:07.826Z,39.80
2018-09-17T01:41:36.245Z,39.90
2018-09-17T01:44:04.563Z,39.90
2018-09-17T01:46:33.000Z,40.10
2018-09-17T01:49:01.264Z,40.30
2018-09-17T01:51:29.779Z,40.50
2018-09-17T01:53:58.154Z,40.50
2018-09-17T01:56:26.477Z,40.50
2018-09-17T01:58:54.814Z,41.00
2018-09-17T02:01:23.111Z,40.90
2018-09-17T02:03:51.467Z,41.20
2018-09-17T02:06:19.828Z,41.00
2018-09-17T02:08:48.192Z,41.00
2018-09-17T02:11:16.431Z,41.00
2018-09-17T02:13:44.809Z,41.20
2018-09-17T02:16:13.095Z,41.00
2018-09-17T02:18:41.399Z,41.10
2018-09-17T02:21:09.678Z,41.10
2018-09-17T02:23:37.966Z,41.00
2018-09-17T02:26:06.411Z,41.10
2018-09-17T02:28:34.732Z,41.30
2018-09-17T02:31:02.986Z,41.00
2018-09-17T02:33:31.287Z,41.30
2018-09-17T02:35:59.552Z,41.20
2018-09-17T02:38:28.765Z,41.20
2018-09-17T02:40:57.083Z,41.20
2018-09-17T02:43:25.397Z,41.20
2018-09-17T02:45:53.738Z,41.00
2018-09-17T02:48:22.015Z,41.40
2018-09-17T02:50:50.302Z,41.30
2018-09-17T02:53:18.606Z,41.20
2018-09-17T02:55:46.883Z,41.20
2018-09-17T02:58:15.175Z,41.30
2018-09-17T03:00:43.599Z,41.50
2018-09-17T03:03:12.139Z,41.60
2018-09-17T03:05:40.652Z,41.50
2018-09-17T03:08:08.941Z,41.70
2018-09-17T03:10:37.225Z,41.50
2018-09-17T03:13:05.995Z,41.50
2018-09-17T03:15:45.650Z,41.50
2018-09-17T03:18:14.095Z,41.40
2018-09-17T03:20:42.416Z,41.40
2018-09-17T03:23:10.804Z,41.20
2018-09-17T03:25:39.159Z,41.40
2018-09-17T03:28:07.443Z,41.60
2018-09-17T03:30:35.745Z,41.90
2018-09-17T03:33:04.229Z,42.00
2018-09-17T03:35:32.606Z,42.20
2018-09-17T03:38:15.144Z,42.10
2018-09-17T03:40:43.463Z,42.10
2018-09-17T03:43:11.803Z,41.80
2018-09-17T03:45:40.120Z,41.90
2018-09-17T03:48:08.459Z,42.00
2018-09-17T03:50:36.763Z,41.90
2018-09-17T03:53:06.148Z,41.90
2018-09-17T03:55:34.619Z,42.00
2018-09-17T03:58:03.010Z,42.10
2018-09-17T04:00:31.378Z,42.10
2018-09-17T04:02:59.696Z,42.30
2018-09-17T04:05:28.043Z,42.50
2018-09-17T04:07:56.350Z,42.50
2018-09-17T04:10:24.699Z,42.70
2018-09-17T04:12:53.004Z,42.80
2018-09-17T04:15:21.353Z,43.10
2018-09-17T04:17:49.656Z,43.40
2018-09-17T04:20:18.107Z,43.60
2018-09-17T04:22:46.487Z,43.80
2018-09-17T04:25:15.444Z,43.90
2018-09-17T04:27:44.135Z,44.00
2018-09-17T04:30:12.835Z,43.90
2018-09-17T04:32:41.315Z,43.90
2018-09-17T04:35:09.620Z,44.10
2018-09-17T04:37:39.036Z,44.10
2018-09-17T04:40:07.795Z,44.00
2018-09-17T04:42:37.145Z,43.80
2018-09-17T04:45:05.471Z,43.80
2018-09-17T04:47:34.355Z,43.90
2018-09-17T04:50:02.858Z,43.90
2018-09-17T04:52:31.772Z,43.90
2018-09-17T04:55:00.141Z,44.10
2018-09-17T04:57:28.523Z,44.30
2018-09-17T04:59:56.755Z,44.40
2018-09-17T05:02:25.083Z,44.70
2018-09-17T05:04:53.532Z,44.80
2018-09-17T05:07:21.930Z,45.10
2018-09-17T05:09:50.271Z,45.30
2018-09-17T05:12:18.886Z,45.80
2018-09-17T05:14:47.295Z,45.80
2018-09-17T05:17:15.742Z,45.90
2018-09-17T05:19:44.091Z,45.90
2018-09-17T05:22:12.441Z,45.90
2018-09-17T05:24:40.722Z,45.90
2018-09-17T05:27:09.039Z,45.90
2018-09-17T05:29:37.431Z,46.00
2018-09-17T05:32:06.004Z,45.90
2018-09-17T05:34:34.272Z,46.00
2018-09-17T05:37:02.567Z,46.10
2018-09-17T05:39:31.078Z,46.10
2018-09-17T05:41:59.483Z,46.10
2018-09-17T05:44:27.848Z,46.00
2018-09-17T05:46:56.153Z,45.60
2018-09-17T05:49:24.432Z,45.60
2018-09-17T05:51:52.948Z,45.50
2018-09-17T05:54:21.366Z,45.70
2018-09-17T05:56:49.666Z,46.20
2018-09-17T05:59:18.184Z,46.30
2018-09-17T06:01:46.550Z,46.30
2018-09-17T06:04:14.975Z,46.30
2018-09-17T06:06:43.558Z,46.20
2018-09-17T06:09:13.052Z,46.30
2018-09-17T06:11:41.477Z,46.30
2018-09-17T06:14:09.830Z,46.40
2018-09-17T06:16:38.090Z,46.30
2018-09-17T06:19:06.371Z,46.20
2018-09-17T06:21:34.663Z,46.10
2018-09-17T06:24:02.983Z,46.20
2018-09-17T06:26:31.314Z,46.40
2018-09-17T06:28:59.599Z,46.00
2018-09-17T06:31:28.123Z,45.80
2018-09-17T06:33:56.446Z,45.30
2018-09-17T06:36:24.823Z,44.80
2018-09-17T06:38:53.063Z,44.50
2018-09-17T06:41:21.409Z,44.20
2018-09-17T06:43:49.639Z,43.90
2018-09-17T06:46:17.915Z,43.60
2018-09-17T06:48:46.177Z,43.20
2018-09-17T06:51:14.472Z,43.30
2018-09-17T06:53:42.762Z,43.10
2018-09-17T06:56:11.701Z,42.60
2018-09-17T06:58:40.032Z,42.40
2018-09-17T07:01:08.287Z,42.40
2018-09-17T07:03:36.531Z,42.00
2018-09-17T07:06:04.879Z,41.50
2018-09-17T07:08:33.329Z,41.30
2018-09-17T07:11:01.612Z,41.00
2018-09-17T07:13:29.908Z,40.80
2018-09-17T07:15:58.205Z,40.50
2018-09-17T07:18:26.584Z,40.30
2018-09-17T07:20:54.934Z,40.30
2018-09-17T07:23:23.226Z,40.20
2018-09-17T07:25:51.519Z,40.00
2018-09-17T07:28:19.907Z,39.90
2018-09-17T07:30:48.364Z,39.80
2018-09-17T07:33:16.772Z,39.00
2018-09-17T07:35:45.233Z,39.10
2018-09-17T07:38:13.593Z,39.30
2018-09-17T07:40:41.915Z,39.30
2018-09-17T07:43:10.244Z,40.00
2018-09-17T07:45:38.574Z,39.10
2018-09-17T07:48:06.893Z,38.80
2018-09-17T07:50:35.202Z,38.40
2018-09-17T07:53:03.496Z,37.90
2018-09-17T07:55:32.167Z,38.00
2018-09-17T07:58:00.556Z,37.10
2018-09-17T08:00:28.874Z,36.70
2018-09-17T08:02:57.175Z,35.80
2018-09-17T08:05:25.459Z,35.40
2018-09-17T08:07:53.787Z,34.70
2018-09-17T08:10:24.168Z,34.30
2018-09-17T08:12:52.881Z,34.00
2018-09-17T08:15:22.070Z,33.70
2018-09-17T08:17:51.349Z,33.20
2018-09-17T08:20:19.646Z,32.80
2018-09-17T08:22:48.088Z,32.10
2018-09-17T08:25:16.423Z,31.60
2018-09-17T08:27:44.878Z,31.00
2018-09-17T08:30:13.176Z,30.50
2018-09-17T08:32:41.499Z,30.00
2018-09-17T08:35:09.938Z,29.70
2018-09-17T08:37:38.552Z,29.40
2018-09-17T08:40:07.478Z,29.20
2018-09-17T08:42:35.863Z,28.60
2018-09-17T08:45:04.329Z,28.20
2018-09-17T08:47:32.640Z,27.70
2018-09-17T08:50:00.951Z,27.40
2018-09-17T08:52:29.647Z,27.00
2018-09-17T08:55:03.223Z,26.70
2018-09-17T08:57:32.076Z,26.40
2018-09-17T09:00:05.787Z,26.10
2018-09-17T09:02:39.378Z,25.80
2018-09-17T09:05:13.156Z,25.60
2018-09-17T09:07:46.727Z,25.40
2018-09-17T09:10:23.155Z,25.80
2018-09-17T09:12:57.199Z,25.10
2018-09-17T09:15:30.931Z,24.90
2018-09-17T09:17:59.210Z,24.90
2018-09-17T09:20:27.460Z,24.80
2018-09-17T09:22:55.718Z,24.60
2018-09-17T09:25:24.391Z,25.10
2018-09-17T09:27:52.653Z,24.40
2018-09-17T09:30:21.146Z,24.30
2018-09-17T09:32:49.411Z,24.40
2018-09-17T09:35:17.700Z,24.00
2018-09-17T09:37:45.964Z,24.10
2018-09-17T09:40:14.315Z,24.10
2018-09-17T09:42:43.270Z,24.00
2018-09-17T09:45:11.960Z,23.90
2018-09-17T09:47:40.272Z,23.80
2018-09-17T09:50:08.699Z,23.80
2018-09-17T09:52:36.981Z,23.70
2018-09-17T09:55:05.219Z,23.50
2018-09-17T09:57:33.508Z,23.40
2018-09-17T10:00:01.803Z,23.00
2018-09-17T10:02:31.102Z,22.80
2018-09-17T10:04:59.398Z,22.70
2018-09-17T10:07:27.658Z,22.50
2018-09-17T10:10:01.320Z,22.30
2018-09-17T10:12:35.192Z,22.10
2018-09-17T10:15:08.824Z,21.70
2018-09-17T10:17:42.572Z,21.50
2018-09-17T10:20:10.847Z,21.00
2018-09-17T10:22:39.089Z,20.90
2018-09-17T10:25:07.354Z,20.80
2018-09-17T10:27:35.637Z,20.50
2018-09-17T10:30:04.066Z,20.20
2018-09-17T10:32:32.269Z,20.10
2018-09-17T10:35:00.547Z,19.80
2018-09-17T10:37:28.894Z,19.50
2018-09-17T10:39:57.231Z,18.80
2018-09-17T10:42:25.503Z,18.30
2018-09-17T10:44:53.766Z,18.30
2018-09-17T10:47:22.019Z,18.10
2018-09-17T10:49:50.366Z,17.60
2018-09-17T10:52:18.659Z,17.00
2018-09-17T10:54:46.957Z,16.90
2018-09-17T10:57:15.255Z,16.60
2018-09-17T10:59:43.591Z,16.20
2018-09-17T11:02:11.859Z,16.00
2018-09-17T11:04:40.143Z,16.00
2018-09-17T11:07:08.389Z,15.60
2018-09-17T11:09:36.640Z,15.70
2018-09-17T11:12:04.902Z,15.70
2018-09-17T11:14:33.411Z,15.80
2018-09-17T11:17:01.781Z,15.50
2018-09-17T11:19:30.703Z,15.70
2018-09-17T11:21:59.003Z,15.50
2018-09-17T11:24:27.330Z,15.30
2018-09-17T11:26:55.676Z,15.20
2018-09-17T11:29:23.996Z,14.80
2018-09-17T11:31:52.427Z,14.50
2018-09-17T11:34:20.827Z,14.30
2018-09-17T11:36:49.173Z,14.60
2018-09-17T11:39:17.505Z,14.60
2018-09-17T11:41:45.930Z,14.40
2018-09-17T11:44:14.223Z,14.20
2018-09-17T11:46:42.507Z,13.80
2018-09-17T11:49:10.790Z,13.90
2018-09-17T11:51:39.103Z,13.50
2018-09-17T11:54:07.512Z,13.40
2018-09-17T11:56:35.722Z,13.20
2018-09-17T11:59:04.072Z,12.90
2018-09-17T12:01:38.011Z,12.70
2018-09-17T12:04:12.968Z,12.10
2018-09-17T12:06:46.627Z,11.20
2018-09-17T12:09:15.094Z,11.90
2018-09-17T12:11:43.388Z,11.30
2018-09-17T12:14:12.296Z,11.80
2018-09-17T12:16:40.674Z,11.70
2018-09-17T12:19:08.996Z,11.80
2018-09-17T12:21:37.411Z,11.70
2018-09-17T12:24:05.799Z,11.80
2018-09-17T12:26:34.102Z,11.90
2018-09-17T12:29:02.471Z,11.90
2018-09-17T12:31:30.898Z,11.80
2018-09-17T12:33:59.224Z,11.40
2018-09-17T12:36:27.470Z,11.40
2018-09-17T12:38:55.758Z,11.40
2018-09-17T12:41:24.090Z,11.30
2018-09-17T12:43:52.442Z,11.00
2018-09-17T12:46:20.743Z,11.20
2018-09-17T12:48:48.997Z,11.50
2018-09-17T12:51:17.390Z,11.30
2018-09-17T12:53:45.718Z,11.30
2018-09-17T12:56:14.143Z,11.10
2018-09-17T12:58:42.399Z,11.50
2018-09-17T13:01:10.812Z,11.70
2018-09-17T13:03:39.105Z,11.70
2018-09-17T13:06:07.707Z,11.80
2018-09-17T13:08:36.154Z,11.30
2018-09-17T13:11:04.450Z,11.80
2018-09-17T13:13:32.755Z,11.80
2018-09-17T13:16:01.019Z,11.80
2018-09-17T13:18:29.586Z,11.60
2018-09-17T13:20:57.874Z,11.50
2018-09-17T13:23:26.134Z,11.50
2018-09-17T13:25:54.627Z,11.50
2018-09-17T13:28:22.879Z,11.60
2018-09-17T13:30:51.407Z,10.90
2018-09-17T13:33:19.697Z,11.50
2018-09-17T13:35:48.043Z,10.90
2018-09-17T13:38:16.327Z,10.90
2018-09-17T13:40:44.620Z,11.40
2018-09-17T13:43:12.927Z,11.70
2018-09-17T13:45:41.284Z,11.10
2018-09-17T13:48:09.538Z,11.40
2018-09-17T13:50:37.809Z,11.50
2018-09-17T13:53:06.252Z,11.10
2018-09-17T13:55:34.639Z,10.40
2018-09-17T13:58:02.983Z,10.50
2018-09-17T14:00:32.295Z,10.30
2018-09-17T14:03:00.578Z,10.90
2018-09-17T14:05:28.919Z,11.50
2018-09-17T14:07:57.301Z,11.70
2018-09-17T14:10:25.594Z,10.80
2018-09-17T14:12:53.903Z,10.80
2018-09-17T14:15:22.179Z,12.10
2018-09-17T14:17:50.502Z,12.20
2018-09-17T14:20:18.847Z,11.90
2018-09-17T14:22:47.266Z,12.10
2018-09-17T14:25:15.678Z,12.40
2018-09-17T14:27:44.233Z,12.00
2018-09-17T14:30:12.749Z,12.70
2018-09-17T14:32:46.473Z,12.70
2018-09-17T14:35:14.849Z,12.90
2018-09-17T14:37:43.193Z,11.50
2018-09-17T14:40:11.592Z,11.70
2018-09-17T14:42:40.007Z,13.10
2018-09-17T14:45:08.523Z,12.90
2018-09-17T14:47:36.875Z,13.50
2018-09-17T14:50:05.261Z,13.70
2018-09-17T14:52:33.579Z,13.60
2018-09-17T14:55:01.948Z,13.50
2018-09-17T14:57:30.323Z,13.60
2018-09-17T14:59:59.099Z,13.60
2018-09-17T15:02:27.471Z,13.40
2018-09-17T15:04:55.776Z,12.00
2018-09-17T15:07:24.099Z,12.90
2018-09-17T15:09:52.452Z,13.00
2018-09-17T15:12:20.825Z,13.00
2018-09-17T15:14:49.184Z,13.10
2018-09-17T15:17:17.607Z,13.90
2018-09-17T15:19:45.952Z,14.40
2018-09-17T15:22:14.336Z,14.90
2018-09-17T15:24:43.091Z,15.60
2018-09-17T15:27:11.589Z,15.50
2018-09-17T15:29:39.951Z,15.40
2018-09-17T15:32:08.313Z,16.30
2018-09-17T15:34:36.536Z,16.40
2018-09-17T15:37:04.856Z,16.10
2018-09-17T15:39:33.256Z,16.70
2018-09-17T15:42:01.644Z,17.10
2018-09-17T15:44:30.057Z,17.20
2018-09-17T15:46:58.352Z,17.90
2018-09-17T15:49:26.576Z,18.30
2018-09-17T15:51:55.086Z,18.60
2018-09-17T15:54:23.421Z,18.00
2018-09-17T15:56:51.700Z,19.00
2018-09-17T15:59:20.027Z,19.30
2018-09-17T16:01:48.437Z,19.00
2018-09-17T16:04:16.878Z,19.20
2018-09-17T16:06:45.462Z,18.10
2018-09-17T16:09:13.766Z,18.80
2018-09-17T16:11:42.053Z,18.10
2018-09-17T16:14:10.419Z,19.70
2018-09-17T16:16:38.816Z,19.60
2018-09-17T16:19:07.431Z,19.90
2018-09-17T16:21:35.718Z,19.60
2018-09-17T16:24:04.035Z,20.40
2018-09-17T16:26:32.343Z,20.10
2018-09-17T16:29:00.675Z,20.50
2018-09-17T16:31:29.035Z,21.00
2018-09-17T16:33:57.353Z,20.80
2018-09-17T16:36:25.655Z,21.10
2018-09-17T16:38:54.116Z,20.90
2018-09-17T16:41:22.475Z,20.90
2018-09-17T16:43:50.857Z,21.70
2018-09-17T16:46:19.307Z,21.20
2018-09-17T16:48:47.832Z,21.20
2018-09-17T16:51:16.179Z,21.40
2018-09-17T16:53:44.625Z,21.60
2018-09-17T16:56:12.877Z,21.80
2018-09-17T16:58:41.522Z,22.60
2018-09-17T17:01:09.791Z,22.10
2018-09-17T17:03:38.257Z,22.30
2018-09-17T17:06:06.577Z,22.40
2018-09-17T17:08:35.042Z,22.70
2018-09-17T17:11:03.537Z,22.90
2018-09-17T17:13:32.035Z,23.30
2018-09-17T17:16:00.461Z,23.60
2018-09-17T17:18:28.872Z,23.80
2018-09-17T17:20:57.192Z,24.00
2018-09-17T17:23:25.495Z,24.20
2018-09-17T17:25:53.853Z,24.40
2018-09-17T17:28:22.409Z,24.50
2018-09-17T17:30:50.735Z,24.60
2018-09-17T17:33:19.082Z,24.70
2018-09-17T17:35:47.603Z,24.90
2018-09-17T17:38:15.997Z,25.10
2018-09-17T17:40:44.485Z,25.20
2018-09-17T17:43:12.803Z,25.30
2018-09-17T17:45:41.092Z,25.50
2018-09-17T17:48:09.439Z,25.60
2018-09-17T17:50:37.821Z,25.70
2018-09-17T17:53:06.274Z,25.90
2018-09-17T17:55:34.647Z,26.20
2018-09-17T17:58:03.224Z,26.20
2018-09-17T18:00:31.595Z,26.30
2018-09-17T18:02:59.917Z,26.50
2018-09-17T18:05:28.286Z,26.60
2018-09-17T18:07:56.612Z,26.70
2018-09-17T18:10:25.008Z,26.80
2018-09-17T18:12:53.437Z,26.80
2018-09-17T18:15:22.095Z,26.80
2018-09-17T18:17:50.339Z,26.90
2018-09-17T18:20:18.898Z,27.00
2018-09-17T18:22:47.462Z,27.00
2018-09-17T18:25:15.957Z,27.50
2018-09-17T18:27:44.455Z,26.90
2018-09-17T18:30:12.863Z,26.90
2018-09-17T18:32:41.159Z,27.10
2018-09-17T18:35:09.161Z,27.30
2018-09-17T18:37:37.595Z,27.40
2018-09-17T18:40:06.241Z,27.30
2018-09-17T18:42:34.667Z,27.40
2018-09-17T18:45:03.123Z,27.50
2018-09-17T18:47:31.570Z,27.70
2018-09-17T18:49:59.929Z,27.70
2018-09-17T18:52:28.214Z,27.80
2018-09-17T18:54:56.563Z,27.90
2018-09-17T18:57:24.947Z,28.00
2018-09-17T18:59:53.287Z,28.00
2018-09-17T19:02:21.756Z,28.10
2018-09-17T19:04:50.316Z,28.20
2018-09-17T19:07:18.796Z,28.30
2018-09-17T19:09:47.225Z,28.40
2018-09-17T19:12:16.755Z,28.40
2018-09-17T19:14:50.361Z,28.40
2018-09-17T19:17:24.462Z,28.50
2018-09-17T19:19:53.481Z,28.60
2018-09-17T19:22:27.187Z,28.60
2018-09-17T19:24:55.440Z,28.80
2018-09-17T19:28:31.145Z,28.80
2018-09-17T19:30:59.545Z,28.80
2018-09-17T19:33:27.892Z,29.10
2018-09-17T19:35:56.288Z,29.20
2018-09-17T19:38:29.876Z,29.10
2018-09-17T19:40:58.296Z,29.20
2018-09-17T19:43:26.677Z,29.70
2018-09-17T19:46:00.625Z,29.30
2018-09-17T19:48:29.062Z,29.40
2018-09-17T19:51:02.703Z,29.40
2018-09-17T19:53:31.130Z,29.50
2018-09-17T19:55:59.505Z,29.60
2018-09-17T19:58:33.232Z,29.70
2018-09-17T20:01:01.548Z,29.80
2018-09-17T20:03:29.859Z,29.70
2018-09-17T20:06:03.614Z,29.90
2018-09-17T20:08:31.897Z,29.90
2018-09-17T20:11:00.392Z,30.00
2018-09-17T20:13:28.775Z,30.00
2018-09-17T20:16:00.013Z,29.90
2018-09-17T20:18:28.811Z,29.80
2018-09-17T20:20:57.348Z,29.80
2018-09-17T20:23:25.736Z,29.70
2018-09-17T20:25:54.335Z,29.80
2018-09-17T20:28:22.783Z,29.70
2018-09-17T20:30:51.407Z,29.60
2018-09-17T20:33:20.360Z,29.40
2018-09-17T20:35:48.930Z,29.40
2018-09-17T20:38:17.455Z,29.30
2018-09-17T20:40:45.856Z,29.40
2018-09-17T20:43:14.194Z,29.20
2018-09-17T20:45:42.608Z,29.40
2018-09-17T20:48:11.572Z,29.20
2018-09-17T20:50:40.871Z,29.20
2018-09-17T20:53:09.236Z,29.20
2018-09-17T20:55:37.877Z,29.20
2018-09-17T20:58:06.352Z,29.30
2018-09-17T21:00:34.805Z,29.20
2018-09-17T21:03:03.218Z,29.20
2018-09-17T21:05:31.640Z,29.20
2018-09-17T21:08:00.356Z,29.10
2018-09-17T21:10:28.763Z,29.10
2018-09-17T21:12:57.177Z,29.20
2018-09-17T21:15:25.607Z,29.20
2018-09-17T21:17:54.483Z,29.00
2018-09-17T21:20:22.998Z,29.00
2018-09-17T21:22:51.452Z,29.30
2018-09-17T21:25:19.780Z,29.40
2018-09-17T21:27:48.357Z,29.00
2018-09-17T21:30:16.783Z,28.90
2018-09-17T21:32:45.451Z,29.20
2018-09-17T21:35:14.036Z,29.70
2018-09-17T21:37:42.419Z,29.30
2018-09-17T21:40:10.740Z,29.20
2018-09-17T21:42:39.401Z,29.00
2018-09-17T21:45:08.903Z,28.90
2018-09-17T21:47:37.272Z,29.70
2018-09-17T21:50:05.742Z,28.90
2018-09-17T21:52:34.306Z,29.70
2018-09-17T21:55:02.762Z,29.80
2018-09-17T21:57:31.164Z,29.30
2018-09-17T21:59:59.715Z,29.90
2018-09-17T22:02:28.193Z,30.70
2018-09-17T22:04:56.688Z,30.70
2018-09-17T22:07:25.517Z,30.60
2018-09-17T22:09:53.931Z,31.40
2018-09-17T22:12:22.359Z,31.70
2018-09-17T22:14:50.843Z,31.80
2018-09-17T22:17:19.257Z,31.70
2018-09-17T22:19:47.846Z,31.70
2018-09-17T22:22:16.426Z,32.30
2018-09-17T22:24:45.171Z,32.50
2018-09-17T22:27:13.615Z,32.20
2018-09-17T22:29:41.968Z,32.50
2018-09-17T22:32:10.310Z,32.90
2018-09-17T22:34:38.797Z,33.10
2018-09-17T22:37:07.275Z,33.00
2018-09-17T22:39:35.585Z,33.00
2018-09-17T22:42:04.010Z,33.70
2018-09-17T22:44:32.571Z,33.20
2018-09-17T22:47:00.975Z,33.60
2018-09-17T22:49:30.289Z,33.90
2018-09-17T22:51:59.949Z,33.90
2018-09-17T22:54:29.791Z,34.10
2018-09-17T22:56:59.370Z,33.50
2018-09-17T22:59:29.874Z,34.00
2018-09-17T23:01:59.621Z,33.70
2018-09-17T23:04:29.033Z,33.60
2018-09-17T23:06:58.630Z,33.50
2018-09-17T23:09:28.274Z,33.70
2018-09-17T23:11:57.650Z,33.60
2018-09-17T23:14:27.123Z,33.50
2018-09-17T23:16:57.255Z,33.60
2018-09-17T23:19:26.801Z,33.60
2018-09-17T23:21:56.178Z,33.50
2018-09-17T23:24:26.130Z,33.60
2018-09-17T23:26:55.447Z,33.70
2018-09-17T23:29:25.158Z,33.60
2018-09-17T23:31:54.942Z,33.40
2018-09-17T23:34:24.414Z,33.40
2018-09-17T23:36:55.453Z,33.40
2018-09-17T23:39:25.153Z,33.50
2018-09-17T23:41:54.808Z,33.30
2018-09-17T23:44:25.470Z,33.40
2018-09-17T23:46:55.141Z,33.50
2018-09-17T23:49:25.665Z,33.40
2018-09-17T23:51:54.933Z,33.70
2018-09-17T23:54:24.640Z,33.80
2018-09-17T23:56:54.140Z,34.20
2018-09-17T23:59:23.435Z,34.30
